Time;durP1;ratioP1;P1;durP2;ratioP2;P2;SDS_P1;SDS_P2;PMS_P1;PMS_P2;Temp;Humidity;BMP_temperature;BMP_pressure;BME280_temperature;BME280_humidity;BME280_pressure;Samples;Min_cycle;Max_cycle;Signal;HPM_P1;HPM_P2
2023/01/17 00:02:16;;;;;;;1.25;1.25;;;;;;;4.98;99.27;96971.91;4425938;32;34943;-77
2023/01/17 00:10:23;;;;;;;2.45;2.35;;;;;;;4.92;99.85;96956.56;4439786;32;33820;-78
2023/01/17 00:12:54;;;;;;;1.50;1.40;;;;;;;5.11;98.29;96955.19;4425891;32;35013;-71
2023/01/17 00:15:24;;;;;;;1.60;1.50;;;;;;;5.09;98.85;96959.53;4439738;32;34417;-78
2023/01/17 00:17:52;;;;;;;3.30;3.05;;;;;;;5.46;96.93;96968.84;4439725;32;33369;-72
2023/01/17 00:26:10;;;;;;;1.05;1.05;;;;;;;5.71;95.40;96968.13;4439660;32;34466;-76
2023/01/17 01:33:52;;;;;;;3.90;1.70;;;;;;;5.32;100.00;96969.22;4439218;32;33449;-77
2023/01/17 01:36:21;;;;;;;0.70;0.70;;;;;;;5.66;96.26;96975.16;4425402;32;34533;-76
2023/01/17 01:38:49;;;;;;;0.70;0.70;;;;;;;5.35;98.77;96986.38;4438887;32;35072;-77
2023/01/17 01:41:17;;;;;;;0.88;0.85;;;;;;;5.07;100.00;96983.69;4438883;32;34413;-72
2023/01/17 01:43:48;;;;;;;2.97;2.78;;;;;;;5.19;100.00;96980.78;4438954;32;33484;-76
2023/01/17 01:46:24;;;;;;;0.82;0.82;;;;;;;4.84;100.00;96966.25;4439078;32;34095;-74
2023/01/17 01:48:58;;;;;;;0.62;0.62;;;;;;;4.93;100.00;96971.16;4425334;32;36195;-76
2023/01/17 01:51:37;;;;;;;0.62;0.62;;;;;;;5.66;99.31;96957.09;4425107;32;34546;-75
2023/01/17 01:54:13;;;;;;;2.20;2.05;;;;;;;5.99;97.46;96949.25;4425205;32;33720;-75
2023/01/17 01:56:41;;;;;;;1.12;1.10;;;;;;;5.70;97.74;96938.06;4438772;32;34722;-76
2023/01/17 01:59:12;;;;;;;0.90;0.90;;;;;;;5.75;97.36;96928.41;4438860;32;35560;-76
2023/01/17 02:01:41;;;;;;;4.72;3.53;;;;;;;5.66;98.11;96923.53;4449097;32;34444;-76
2023/01/17 02:04:09;;;;;;;1.23;1.05;;;;;;;5.85;97.08;96924.66;4438730;32;33555;-76
2023/01/17 02:06:41;;;;;;;1.00;1.00;;;;;;;6.17;96.24;96928.00;4438930;32;33930;-76
2023/01/17 02:09:11;;;;;;;0.70;0.70;;;;;;;5.99;95.79;96926.00;4438707;32;35160;-76
2023/01/17 02:11:40;;;;;;;1.05;0.98;;;;;;;5.97;95.96;96938.13;4438987;32;34487;-76
2023/01/17 02:14:13;;;;;;;2.08;1.67;;;;;;;6.22;94.12;96927.88;4438457;32;34330;-74
2023/01/17 02:17:40;;;;;;;2.95;2.17;;;;;;;5.63;97.26;96939.09;4438660;32;34895;-77
2023/01/17 02:20:26;;;;;;;2.10;1.95;;;;;;;6.13;96.01;96939.34;4375297;32;34933;-72
2023/01/17 02:23:11;;;;;;;1.08;0.88;;;;;;;5.83;98.02;96935.94;4375397;32;34387;-71
2023/01/17 02:26:09;;;;;;;2.67;2.47;;;;;;;5.78;97.63;96932.66;4421684;32;32873;-73
2023/01/17 02:29:19;;;;;;;1.92;1.62;;;;;;;5.29;100.00;96924.59;4438335;32;34085;-78
2023/01/17 02:32:37;;;;;;;2.17;1.42;;;;;;;5.34;100.00;96927.91;4404211;32;34935;-74
2023/01/17 02:35:19;;;;;;;0.62;0.62;;;;;;;5.33;100.00;96923.66;4418142;32;34104;-75
2023/01/17 02:38:14;;;;;;;1.60;1.50;;;;;;;5.40;100.00;96922.59;4424550;32;33529;-74
2023/01/17 02:40:52;;;;;;;2.55;2.22;;;;;;;5.29;100.00;96920.31;4438276;32;35079;-75
2023/01/17 02:43:22;;;;;;;1.95;1.80;;;;;;;5.27;100.00;96916.06;4424619;32;35836;-75
2023/01/17 02:45:50;;;;;;;2.70;2.53;;;;;;;5.09;100.00;96900.22;4438229;32;33528;-77
2023/01/17 02:48:22;;;;;;;1.98;1.87;;;;;;;5.18;100.00;96893.97;4424336;32;34308;-76
2023/01/17 02:51:18;;;;;;;1.87;1.67;;;;;;;5.41;100.00;96885.53;4449481;32;34008;-76
2023/01/17 02:54:09;;;;;;;1.23;1.23;;;;;;;5.37;100.00;96880.53;4438012;32;35065;-71
2023/01/17 02:57:12;;;;;;;0.90;0.90;;;;;;;5.63;100.00;96882.31;4437972;32;34531;-76
2023/01/17 02:59:52;;;;;;;6.78;6.15;;;;;;;5.74;99.03;96869.94;4438155;32;33446;-76
2023/01/17 03:02:27;;;;;;;1.60;1.50;;;;;;;5.65;100.00;96862.47;4424205;32;33934;-76
2023/01/17 03:05:09;;;;;;;3.70;2.50;;;;;;;5.94;99.86;96861.53;4436690;32;35913;-71
2023/01/17 03:07:39;;;;;;;0.82;0.82;;;;;;;5.78;99.14;96855.19;4449459;32;34341;-76
2023/01/17 03:10:07;;;;;;;3.95;3.65;;;;;;;5.75;99.49;96853.53;4437752;32;33055;-74
2023/01/17 03:12:37;;;;;;;1.20;1.20;;;;;;;6.24;96.88;96849.38;4436613;32;33935;-76
2023/01/17 03:15:11;;;;;;;1.17;1.17;;;;;;;6.19;96.99;96845.28;4426326;32;34253;-71
2023/01/17 03:17:44;;;;;;;1.55;1.45;;;;;;;5.97;97.41;96845.97;4426357;32;34559;-76
2023/01/17 03:20:12;;;;;;;1.70;1.65;;;;;;;5.96;98.08;96840.88;4440147;32;33427;-76
2023/01/17 03:22:40;;;;;;;2.03;1.60;;;;;;;5.85;97.70;96844.59;4440102;32;34807;-76
2023/01/17 03:25:08;;;;;;;4.37;1.73;;;;;;;6.08;96.13;96837.87;4440055;32;35356;-77
2023/01/17 03:27:37;;;;;;;0.95;0.95;;;;;;;6.26;96.27;96832.09;4438929;32;34513;-76
2023/01/17 03:30:06;;;;;;;1.75;1.40;;;;;;;5.94;97.99;96824.53;4438880;32;33451;-70
2023/01/17 03:32:34;;;;;;;1.20;1.12;;;;;;;5.80;98.54;96820.66;4439965;32;34729;-72
2023/01/17 03:35:02;;;;;;;0.70;0.70;;;;;;;6.02;97.62;96812.25;4440120;32;35984;-77
2023/01/17 03:37:30;;;;;;;0.70;0.70;;;;;;;6.20;96.41;96811.62;4439877;32;35303;-76
2023/01/17 03:39:58;;;;;;;0.88;0.88;;;;;;;5.97;98.10;96806.41;4438826;32;33794;-76
2023/01/17 03:42:26;;;;;;;3.30;3.00;;;;;;;6.25;96.59;96814.06;4439805;32;33857;-71
2023/01/17 03:44:54;;;;;;;1.58;1.48;;;;;;;6.68;93.30;96819.47;4439782;32;35999;-71
2023/01/17 03:47:22;;;;;;;0.95;0.95;;;;;;;6.10;96.37;96817.16;4439824;32;34174;-76
2023/01/17 03:49:51;;;;;;;0.57;0.57;;;;;;;6.13;96.10;96815.31;4439716;32;33327;-76
2023/01/17 03:52:18;;;;;;;1.70;1.58;;;;;;;6.22;95.11;96809.00;4439831;32;34731;-75
2023/01/17 03:54:47;;;;;;;1.95;1.85;;;;;;;6.39;94.61;96800.69;4439765;32;35156;-75
2023/01/17 03:57:15;;;;;;;4.35;3.95;;;;;;;6.57;93.54;96812.09;4439582;32;35344;-71
2023/01/17 03:59:44;;;;;;;4.70;1.10;;;;;;;6.43;94.99;96810.84;4439800;32;33606;-76
2023/01/17 04:02:12;;;;;;;8.57;0.88;;;;;;;6.64;92.99;96801.47;4439598;32;34043;-76
2023/01/17 04:04:41;;;;;;;0.50;0.50;;;;;;;6.39;94.74;96804.09;4425769;32;35138;-75
2023/01/17 04:07:09;;;;;;;0.60;0.60;;;;;;;6.61;94.18;96804.16;4439695;32;34558;-75
2023/01/17 04:09:37;;;;;;;1.00;1.00;;;;;;;5.91;96.05;96798.81;4439942;32;34275;-74
2023/01/17 04:12:05;;;;;;;1.17;1.08;;;;;;;6.43;95.17;96802.25;4439650;32;33929;-72
2023/01/17 04:14:34;;;;;;;1.30;1.20;;;;;;;6.39;95.20;96801.50;4439640;32;35091;-76
2023/01/17 04:17:02;;;;;;;1.02;1.02;;;;;;;6.70;94.75;96799.56;4439553;32;34362;-75
2023/01/17 04:19:33;;;;;;;1.48;1.37;;;;;;;6.22;94.59;96799.50;4439683;32;33442;-76
2023/01/17 04:22:02;;;;;;;0.73;0.73;;;;;;;6.49;95.15;96804.59;4451147;32;33106;-76
2023/01/17 04:24:30;;;;;;;1.62;0.98;;;;;;;6.47;95.49;96814.16;4425120;32;35000;-75
2023/01/17 04:26:58;;;;;;;1.12;0.80;;;;;;;6.46;93.66;96812.47;4439232;32;35282;-76
2023/01/17 04:29:26;;;;;;;4.20;3.42;;;;;;;6.35;95.10;96814.59;4439602;32;33644;-75
2023/01/17 04:31:54;;;;;;;0.93;0.70;;;;;;;6.14;96.44;96811.84;4439237;32;33897;-73
2023/01/17 04:34:22;;;;;;;1.48;1.42;;;;;;;6.57;93.23;96805.19;4439294;32;35966;-75
2023/01/17 04:36:50;;;;;;;0.68;0.68;;;;;;;6.19;96.44;96809.94;4439550;32;34312;-76
2023/01/17 04:39:18;;;;;;;0.88;0.88;;;;;;;6.01;97.99;96810.56;4439453;32;33449;-76
2023/01/17 04:41:47;;;;;;;0.80;0.80;;;;;;;6.05;97.18;96812.12;4439428;32;34394;-72
2023/01/17 04:44:14;;;;;;;0.60;0.60;;;;;;;5.99;98.25;96808.03;4439465;32;34988;-71
2023/01/17 04:46:42;;;;;;;0.60;0.60;;;;;;;6.52;94.52;96811.41;4439339;32;34466;-75
2023/01/17 04:49:11;;;;;;;0.68;0.68;;;;;;;5.94;97.54;96804.72;4439806;32;34176;-75
2023/01/17 04:51:39;;;;;;;0.50;0.50;;;;;;;5.78;98.72;96809.53;4439410;32;34753;-78
2023/01/17 04:54:07;;;;;;;0.60;0.60;;;;;;;6.29;96.57;96812.22;4439368;32;35111;-75
2023/01/17 04:56:35;;;;;;;0.60;0.60;;;;;;;6.04;97.35;96820.81;4439424;32;34535;-75
2023/01/17 04:59:03;;;;;;;0.50;0.50;;;;;;;5.85;98.37;96811.03;4439387;32;33441;-75
2023/01/17 05:01:31;;;;;;;0.50;0.50;;;;;;;5.82;98.13;96808.56;4439424;32;33885;-74
2023/01/17 05:03:59;;;;;;;0.52;0.52;;;;;;;5.90;98.57;96803.12;4439209;32;35088;-75
2023/01/17 05:06:27;;;;;;;0.75;0.75;;;;;;;5.87;99.07;96801.47;4439355;32;34264;-71
2023/01/17 05:08:55;;;;;;;2.05;1.95;;;;;;;5.81;99.35;96809.44;4439325;32;33911;-71
2023/01/17 05:11:24;;;;;;;0.52;0.52;;;;;;;5.35;100.00;96815.19;4439235;32;33971;-79
2023/01/17 05:13:52;;;;;;;0.50;0.50;;;;;;;5.64;100.00;96807.41;4439127;32;35009;-75
2023/01/17 05:16:20;;;;;;;0.50;0.50;;;;;;;5.58;100.00;96820.50;4439149;32;34327;-75
2023/01/17 05:18:52;;;;;;;0.62;0.62;;;;;;;5.52;100.00;96815.53;4439208;32;33706;-73
2023/01/17 05:21:21;;;;;;;0.88;0.88;;;;;;;5.75;99.83;96819.97;4424912;32;33886;-75
2023/01/17 05:23:49;;;;;;;1.77;1.67;;;;;;;5.85;97.81;96823.94;4425327;32;36032;-80
2023/01/17 05:26:17;;;;;;;0.50;0.50;;;;;;;5.88;98.78;96826.44;4439297;32;34601;-74
2023/01/17 05:28:45;;;;;;;0.50;0.50;;;;;;;5.89;98.26;96828.13;4439163;32;33463;-81
2023/01/17 05:31:14;;;;;;;0.50;0.50;;;;;;;5.96;98.35;96822.78;4438928;32;33885;-81
2023/01/17 05:33:42;;;;;;;0.52;0.52;;;;;;;6.20;97.35;96824.56;4436990;32;34985;-71
2023/01/17 05:36:10;;;;;;;0.80;0.80;;;;;;;6.15;96.79;96823.84;4424707;32;34382;-70
2023/01/17 05:38:38;;;;;;;0.40;0.40;;;;;;;6.13;95.80;96830.81;4438697;32;33450;-70
2023/01/17 05:41:06;;;;;;;0.62;0.62;;;;;;;5.82;97.78;96842.12;4438713;32;34017;-71
2023/01/17 05:43:34;;;;;;;0.50;0.50;;;;;;;6.13;97.00;96846.31;4443917;32;35999;-78
2023/01/17 05:46:02;;;;;;;1.00;1.00;;;;;;;6.18;95.28;96848.75;4454342;32;34632;-78
2023/01/17 05:48:30;;;;;;;1.12;1.12;;;;;;;5.83;98.86;96851.56;4440094;32;33424;-72
2023/01/17 05:51:00;;;;;;;0.80;0.80;;;;;;;6.30;95.50;96857.81;4454187;32;34758;-70
2023/01/17 05:53:28;;;;;;;0.55;0.55;;;;;;;6.37;94.83;96864.47;4453731;32;37214;-75
2023/01/17 05:55:56;;;;;;;1.40;1.35;;;;;;;5.97;96.39;96871.81;4454512;32;34537;-70
2023/01/17 05:58:24;;;;;;;0.60;0.60;;;;;;;5.58;98.90;96874.72;4440021;32;33544;-70
2023/01/17 06:00:54;;;;;;;1.35;1.25;;;;;;;6.00;95.95;96876.03;4454140;32;33859;-78
2023/01/17 06:03:23;;;;;;;0.52;0.52;;;;;;;5.71;97.49;96875.19;4453752;32;34301;-73
2023/01/17 06:05:51;;;;;;;0.60;0.60;;;;;;;5.57;100.00;96887.66;4453995;32;35304;-80
2023/01/17 06:08:20;;;;;;;1.37;1.30;;;;;;;5.92;97.12;96890.91;4453617;32;34313;-77
2023/01/17 06:10:48;;;;;;;7.85;2.40;;;;;;;5.85;97.69;96893.66;4453937;32;34736;-73
2023/01/17 06:13:20;;;;;;;0.95;0.95;;;;;;;6.06;96.67;96896.50;4453479;32;35056;-70
2023/01/17 06:15:48;;;;;;;0.60;0.60;;;;;;;5.49;99.32;96896.50;4453969;32;35117;-73
2023/01/17 06:18:17;;;;;;;0.65;0.65;;;;;;;5.48;100.00;96899.94;4453645;32;34269;-74
2023/01/17 06:20:51;;;;;;;0.50;0.50;;;;;;;5.57;100.00;96900.56;4439738;32;34078;-71
2023/01/17 06:23:20;;;;;;;0.50;0.50;;;;;;;5.67;99.76;96904.56;4426889;32;34905;-72
2023/01/17 06:25:49;;;;;;;0.50;0.50;;;;;;;5.40;100.00;96893.31;4437259;32;34704;-72
2023/01/17 06:28:20;;;;;;;2.50;2.35;;;;;;;5.88;98.23;96900.50;4436782;32;33699;-74
2023/01/17 06:30:48;;;;;;;0.45;0.45;;;;;;;5.67;99.25;96909.75;4438068;32;33208;-71
2023/01/17 06:33:16;;;;;;;0.50;0.50;;;;;;;5.29;100.00;96909.13;4437753;32;35972;-71
2023/01/17 06:35:52;;;;;;;0.65;0.65;;;;;;;5.84;99.12;96922.97;4453326;32;33924;-74
2023/01/17 06:38:21;;;;;;;0.50;0.50;;;;;;;6.01;97.34;96921.63;4453741;32;34297;-77
2023/01/17 06:40:48;;;;;;;1.23;1.12;;;;;;;5.62;98.42;96937.44;4453465;32;33819;-73
2023/01/17 06:43:16;;;;;;;11.07;1.08;;;;;;;5.48;99.62;96938.66;4452957;32;36007;-76
2023/01/17 06:45:45;;;;;;;1.77;1.67;;;;;;;5.18;100.00;96939.56;4453129;32;34489;-74
2023/01/17 06:48:13;;;;;;;0.50;0.50;;;;;;;5.38;100.00;96944.97;4453389;32;33166;-71
2023/01/17 06:50:41;;;;;;;0.80;0.80;;;;;;;5.85;96.43;96949.66;4455514;32;33993;-72
2023/01/17 06:53:09;;;;;;;0.60;0.60;;;;;;;5.53;98.69;96953.19;4455092;32;35161;-72
2023/01/17 06:55:39;;;;;;;0.50;0.50;;;;;;;5.80;97.37;96962.69;4455369;32;34598;-73
2023/01/17 06:58:09;;;;;;;0.50;0.50;;;;;;;5.93;95.21;96970.06;4455238;32;33623;-71
2023/01/17 07:00:37;;;;;;;0.40;0.40;;;;;;;5.84;95.11;96969.47;4441579;32;34495;-72
2023/01/17 07:03:18;;;;;;;0.60;0.60;;;;;;;5.33;96.51;96967.50;4454837;32;34249;-74
2023/01/17 07:05:47;;;;;;;2.28;1.30;;;;;;;5.55;95.50;96977.22;4441770;32;34298;-71
2023/01/17 07:08:16;;;;;;;1.55;1.30;;;;;;;5.51;95.11;96987.62;4455155;32;34315;-71
2023/01/17 07:10:45;;;;;;;0.60;0.60;;;;;;;5.87;94.03;96990.00;4455444;32;34823;-71
2023/01/17 07:13:14;;;;;;;0.95;0.80;;;;;;;5.28;97.42;96990.03;4455070;32;34991;-70
2023/01/17 07:15:42;;;;;;;0.47;0.47;;;;;;;5.71;95.76;96996.53;4455500;32;34444;-70
2023/01/17 07:18:09;;;;;;;0.68;0.68;;;;;;;5.34;96.11;96992.41;4455083;32;33479;-76
2023/01/17 07:20:38;;;;;;;0.62;0.62;;;;;;;5.35;96.85;97001.84;4455539;32;34667;-75
2023/01/17 07:23:07;;;;;;;0.70;0.70;;;;;;;4.92;98.52;97009.00;4454951;32;35805;-72
2023/01/17 07:25:36;;;;;;;3.50;3.20;;;;;;;4.96;97.94;97014.06;4455331;32;33599;-73
2023/01/17 07:28:04;;;;;;;3.78;2.95;;;;;;;5.71;94.79;97017.19;4455075;32;33219;-71
2023/01/17 07:30:33;;;;;;;0.68;0.68;;;;;;;5.62;94.26;97025.19;4455348;32;33888;-73
2023/01/17 07:33:01;;;;;;;0.50;0.50;;;;;;;5.48;94.35;97028.16;4454636;32;35289;-71
2023/01/17 07:35:30;;;;;;;3.17;0.75;;;;;;;5.45;93.00;97023.09;4441277;32;34524;-78
2023/01/17 07:37:58;;;;;;;0.50;0.50;;;;;;;5.56;92.21;97036.56;4455255;32;34186;-77
2023/01/17 07:40:26;;;;;;;0.60;0.60;;;;;;;5.34;93.54;97045.75;4423149;32;33774;-77
2023/01/17 07:43:01;;;;;;;1.30;1.20;;;;;;;5.45;93.07;97052.34;4424282;32;34989;-76
2023/01/17 07:45:29;;;;;;;1.75;1.30;;;;;;;5.81;90.51;97067.69;4424082;32;34790;-77
2023/01/17 07:48:00;;;;;;;0.70;0.70;;;;;;;5.57;92.10;97073.53;4424287;32;32777;-77
2023/01/17 07:50:28;;;;;;;0.60;0.60;;;;;;;5.63;89.96;97075.94;4439552;32;32889;-74
2023/01/17 07:52:56;;;;;;;2.55;2.20;;;;;;;5.32;91.10;97079.34;4439340;32;35122;-74
2023/01/17 07:55:24;;;;;;;0.82;0.82;;;;;;;4.66;94.12;97084.41;4439588;32;35277;-74
2023/01/17 07:57:54;;;;;;;0.70;0.70;;;;;;;4.99;92.66;97081.87;4439485;32;33542;-76
2023/01/17 08:00:27;;;;;;;0.50;0.50;;;;;;;5.13;91.01;97085.00;4439638;32;33891;-76
2023/01/17 08:03:00;;;;;;;0.60;0.60;;;;;;;5.26;92.37;97089.84;4439285;32;34779;-69
2023/01/17 08:05:29;;;;;;;0.55;0.55;;;;;;;5.50;92.52;97094.34;4425757;32;34468;-72
2023/01/17 08:07:58;;;;;;;0.50;0.50;;;;;;;6.44;91.62;97094.31;4439484;32;33464;-73
2023/01/17 08:10:26;;;;;;;0.40;0.40;;;;;;;6.83;87.78;97090.53;4439515;32;34657;-71
2023/01/17 08:12:54;;;;;;;0.50;0.50;;;;;;;7.39;84.46;97089.53;4439278;32;35919;-70
2023/01/17 08:15:25;;;;;;;1.10;1.05;;;;;;;6.71;81.12;97096.94;4439468;32;35206;-73
2023/01/17 08:17:53;;;;;;;0.45;0.45;;;;;;;6.93;82.08;97098.81;4425542;32;33505;-72
2023/01/17 08:20:21;;;;;;;0.82;0.82;;;;;;;6.52;82.44;97100.97;4439393;32;33878;-73
2023/01/17 08:22:54;;;;;;;0.40;0.40;;;;;;;6.26;85.37;97094.84;4438711;32;35962;-73
2023/01/17 08:25:24;;;;;;;0.50;0.50;;;;;;;6.43;83.90;97105.53;4439241;32;34898;-73
2023/01/17 08:27:56;;;;;;;0.50;0.50;;;;;;;7.49;77.67;97103.84;4439214;32;32653;-74
2023/01/17 08:30:24;;;;;;;0.73;0.73;;;;;;;7.40;76.99;97112.78;4439348;32;33848;-74
2023/01/17 08:32:53;;;;;;;0.60;0.60;;;;;;;6.44;81.63;97114.97;4438969;32;34897;-73
2023/01/17 08:35:21;;;;;;;0.50;0.50;;;;;;;6.38;81.26;97124.66;4438890;32;33998;-76
2023/01/17 08:37:52;;;;;;;0.40;0.40;;;;;;;6.91;80.68;97129.91;4425383;32;34528;-75
2023/01/17 08:40:23;;;;;;;0.40;0.40;;;;;;;6.73;75.90;97127.91;4439448;32;33782;-74
2023/01/17 08:42:55;;;;;;;0.50;0.50;;;;;;;5.37;84.88;97129.09;4439146;32;35795;-77
2023/01/17 08:45:24;;;;;;;0.50;0.50;;;;;;;6.15;83.76;97133.06;4425470;32;34479;-74
2023/01/17 08:47:52;;;;;;;0.40;0.40;;;;;;;6.43;80.63;97133.13;4425665;32;34270;-74
2023/01/17 08:50:20;;;;;;;0.50;0.50;;;;;;;6.59;79.98;97144.69;4439168;32;34087;-77
2023/01/17 08:52:49;;;;;;;0.47;0.47;;;;;;;7.15;78.47;97138.62;4438971;32;34781;-75
2023/01/17 08:55:18;;;;;;;0.40;0.40;;;;;;;7.39;76.07;97138.72;4425271;32;34410;-75
2023/01/17 08:57:46;;;;;;;0.40;0.40;;;;;;;8.68;71.30;97125.47;4439132;32;33468;-74
2023/01/17 09:00:15;;;;;;;0.40;0.40;;;;;;;9.51;68.21;97126.47;4438831;32;32855;-74
2023/01/17 09:02:43;;;;;;;0.40;0.40;;;;;;;10.24;66.95;97122.44;4438907;32;35108;-74
2023/01/17 09:05:12;;;;;;;0.50;0.50;;;;;;;11.71;63.94;97121.53;4439083;32;35217;-76
2023/01/17 09:07:40;;;;;;;2.45;2.28;;;;;;;11.99;61.35;97138.41;4439175;32;34345;-76
2023/01/17 09:10:09;;;;;;;1.92;1.83;;;;;;;12.57;56.67;97145.75;4438875;32;34035;-73
2023/01/17 09:12:39;;;;;;;6.85;5.03;;;;;;;12.11;58.26;97138.59;4438265;32;35871;-73
2023/01/17 09:15:10;;;;;;;4.95;3.03;;;;;;;12.36;59.67;97142.53;4438904;32;34570;-74
2023/01/17 09:17:37;;;;;;;0.35;0.35;;;;;;;13.27;57.68;97146.22;4439120;32;33179;-73
2023/01/17 09:20:06;;;;;;;0.40;0.40;;;;;;;13.03;56.54;97147.59;4438954;32;34093;-73
2023/01/17 09:22:36;;;;;;;0.50;0.50;;;;;;;13.81;54.11;97147.53;4438841;32;35040;-72
2023/01/17 09:25:07;;;;;;;0.30;0.30;;;;;;;13.76;54.05;97145.16;4438405;32;35146;-73
2023/01/17 09:30:03;;;;;;;0.40;0.40;;;;;;;11.77;56.96;97155.97;4438711;32;34455;-72
2023/01/17 09:32:32;;;;;;;0.50;0.50;;;;;;;13.64;54.92;97161.56;4438690;32;35805;-72
2023/01/17 09:35:06;;;;;;;0.32;0.32;;;;;;;13.45;54.36;97172.28;4438814;32;33643;-73
2023/01/17 09:37:36;;;;;;;0.40;0.40;;;;;;;13.15;56.00;97174.81;4439002;32;33472;-73
2023/01/17 09:40:06;;;;;;;0.40;0.40;;;;;;;13.23;55.84;97175.22;4439074;32;33781;-73
2023/01/17 09:42:37;;;;;;;0.80;0.80;;;;;;;13.14;54.50;97183.59;4425158;32;34348;-72
2023/01/17 09:45:15;;;;;;;0.43;0.43;;;;;;;12.32;56.65;97188.81;4424912;32;35109;-72
2023/01/17 09:47:51;;;;;;;0.40;0.40;;;;;;;12.46;59.48;97197.69;4424997;32;33424;-72
2023/01/17 09:50:20;;;;;;;;;;;;;;;12.76;58.40;97199.56;4425182;32;34718;-73
2023/01/17 09:52:49;;;;;;;0.77;0.77;;;;;;;13.03;55.62;97200.69;4438641;32;35325;-74
2023/01/17 09:55:19;;;;;;;1.00;0.90;;;;;;;14.43;51.47;97199.66;4425025;32;34393;-73
2023/01/17 09:58:29;;;;;;;0.80;0.80;;;;;;;14.47;50.93;97200.28;4438787;32;33121;-73
2023/01/17 10:00:57;;;;;;;0.30;0.30;;;;;;;13.55;55.22;97219.63;4415617;32;33763;-73
2023/01/17 10:03:41;;;;;;;0.45;0.45;;;;;;;14.41;49.64;97223.28;4438523;32;35047;-73
2023/01/17 10:06:40;;;;;;;0.40;0.40;;;;;;;14.87;47.31;97224.91;4438449;32;34399;-75
2023/01/17 10:09:45;;;;;;;0.40;0.40;;;;;;;13.37;53.67;97224.97;4424942;32;33338;-73
2023/01/17 10:12:38;;;;;;;0.65;0.65;;;;;;;15.33;48.65;97221.16;4424780;32;33201;-75
2023/01/17 10:15:45;;;;;;;0.45;0.45;;;;;;;14.76;48.10;97222.12;4424565;32;35022;-73
2023/01/17 10:18:29;;;;;;;0.40;0.40;;;;;;;16.04;44.30;97222.69;4438483;32;34416;-74
2023/01/17 10:21:12;;;;;;;1.20;1.10;;;;;;;15.31;47.42;97223.88;4438314;32;33833;-73
2023/01/17 10:24:07;;;;;;;0.62;0.62;;;;;;;17.72;42.78;97215.38;4439095;32;34781;-74
2023/01/17 10:26:38;;;;;;;0.95;0.95;;;;;;;17.77;42.75;97213.22;4427059;32;35832;-73
2023/01/17 10:29:14;;;;;;;0.30;0.30;;;;;;;19.06;39.96;97215.72;4440098;32;34517;-74
2023/01/17 10:31:54;;;;;;;0.32;0.32;;;;;;;17.57;42.13;97219.94;4439621;32;33489;-75
2023/01/17 10:34:33;;;;;;;1.30;1.25;;;;;;;17.07;41.87;97206.88;4444761;32;34622;-74
2023/01/17 10:37:26;;;;;;;0.45;0.45;;;;;;;18.12;41.13;97204.50;4454843;32;35784;-74
2023/01/17 10:39:57;;;;;;;0.55;0.45;;;;;;;19.36;38.72;97206.31;4426685;32;34462;-73
2023/01/17 10:42:30;;;;;;;0.40;0.40;;;;;;;19.79;35.80;97190.47;4425787;32;33526;-72
2023/01/17 10:45:05;;;;;;;0.50;0.50;;;;;;;21.13;32.82;97186.19;4439013;32;34884;-73
2023/01/17 10:47:36;;;;;;;0.10;0.10;;;;;;;21.64;30.82;97185.16;4425764;32;35141;-73
2023/01/17 10:50:04;;;;;;;0.30;0.30;;;;;;;20.53;34.66;97181.63;4425389;32;33634;-73
2023/01/17 10:52:36;;;;;;;0.43;0.43;;;;;;;19.41;37.49;97189.16;4439211;32;34307;-71
2023/01/17 10:55:47;;;;;;;0.40;0.40;;;;;;;18.24;40.08;97179.03;4439129;32;34008;-73
2023/01/17 10:58:16;;;;;;;1.17;1.12;;;;;;;19.19;37.87;97176.84;4417542;32;34317;-74
2023/01/17 11:00:47;;;;;;;0.40;0.40;;;;;;;18.90;37.49;97168.63;4425003;32;34519;-73
2023/01/17 11:03:19;;;;;;;0.47;0.47;;;;;;;18.87;38.91;97164.44;4439340;32;33485;-74
2023/01/17 11:06:23;;;;;;;0.40;0.40;;;;;;;19.87;36.10;97161.62;4438942;32;34628;-74
2023/01/17 11:08:53;;;;;;;0.15;0.15;;;;;;;19.20;38.17;97148.66;4438798;32;36025;-72
2023/01/17 11:11:30;;;;;;;0.30;0.30;;;;;;;20.53;31.96;97149.87;4439004;32;34065;-76
2023/01/17 11:14:06;;;;;;;0.43;0.43;;;;;;;17.76;37.53;97153.62;4438815;32;33660;-75
2023/01/17 11:16:36;;;;;;;0.40;0.40;;;;;;;17.79;37.31;97145.50;4439225;32;34016;-77
2023/01/17 11:19:34;;;;;;;0.88;0.88;;;;;;;19.11;36.44;97145.81;4438809;32;35072;-77
2023/01/17 11:22:05;;;;;;;0.30;0.30;;;;;;;18.64;37.70;97134.59;4425832;32;34356;-82
2023/01/17 11:24:40;;;;;;;0.40;0.40;;;;;;;20.11;36.18;97123.53;4425367;32;34342;-75
2023/01/17 11:27:26;;;;;;;0.60;0.60;;;;;;;20.01;33.45;97123.50;4438962;32;34725;-80
2023/01/17 11:30:19;;;;;;;0.45;0.45;;;;;;;21.55;34.07;97125.09;4425165;32;35820;-81
2023/01/17 11:33:25;;;;;;;0.30;0.30;;;;;;;21.86;31.46;97111.66;4422092;32;341195;-80
2023/01/17 11:35:57;;;;;;;0.40;0.40;;;;;;;20.86;32.84;97113.56;4439418;32;32457;-78
2023/01/17 11:38:26;;;;;;;0.45;0.45;;;;;;;21.51;33.73;97097.19;4439602;32;34822;-76
2023/01/17 11:41:18;;;;;;;0.73;0.70;;;;;;;20.34;34.39;97096.94;4425750;32;35050;-73
2023/01/17 11:43:57;;;;;;;0.32;0.32;;;;;;;20.18;33.34;97092.97;4428300;32;35232;-73
2023/01/17 11:46:29;;;;;;;0.47;0.47;;;;;;;20.49;30.94;97111.47;4439671;32;33437;-76
2023/01/17 11:48:59;;;;;;;0.52;0.52;;;;;;;20.00;31.35;97110.41;4425739;32;33823;-73
2023/01/17 11:51:31;;;;;;;0.37;0.37;;;;;;;17.56;36.48;97107.75;4439578;32;35062;-74
2023/01/17 11:54:15;;;;;;;0.43;0.43;;;;;;;17.94;36.44;97123.31;4439719;32;34474;-74
2023/01/17 11:56:45;;;;;;;0.40;0.40;;;;;;;19.45;33.60;97121.13;4424293;32;33536;-73
2023/01/17 11:59:28;;;;;;;0.40;0.40;;;;;;;18.97;33.02;97132.06;4425248;32;33231;-75
2023/01/17 12:02:16;;;;;;;0.52;0.52;;;;;;;19.56;31.85;97134.25;4425835;32;35209;-72
2023/01/17 12:04:49;;;;;;;1.30;1.20;;;;;;;19.23;31.25;97135.22;4439179;32;35311;-72
2023/01/17 12:08:02;;;;;;;0.50;0.50;;;;;;;18.88;33.69;97144.19;4425114;32;33606;-73
2023/01/17 12:10:41;;;;;;;0.30;0.30;;;;;;;18.29;35.11;97135.56;4437366;32;33786;-77
2023/01/17 12:16:29;;;;;;;0.88;0.82;;;;;;;18.39;35.74;97138.34;4439186;32;34740;-78
2023/01/17 12:19:27;;;;;;;0.40;0.40;;;;;;;17.96;35.46;97144.25;4439637;32;34128;-74
2023/01/17 12:22:01;;;;;;;0.70;0.70;;;;;;;15.61;38.14;97138.91;4410701;32;34703;-73
2023/01/17 12:24:44;;;;;;;0.40;0.40;;;;;;;13.76;44.19;97141.72;4425763;32;34999;-77
2023/01/17 12:27:19;;;;;;;0.40;0.40;;;;;;;13.14;44.76;97131.31;4425710;32;34600;-73
2023/01/17 12:30:29;;;;;;;0.40;0.40;;;;;;;12.99;46.18;97125.16;4439405;32;34345;-73
2023/01/17 12:33:45;;;;;;;0.40;0.40;;;;;;;11.84;48.17;97125.22;4439236;32;33921;-72
2023/01/17 12:36:29;;;;;;;0.30;0.30;;;;;;;11.83;49.20;97130.50;4373798;32;35928;-76
2023/01/17 12:39:10;;;;;;;0.50;0.50;;;;;;;11.37;49.62;97131.06;4422346;32;35455;-74
2023/01/17 12:41:55;;;;;;;0.40;0.40;;;;;;;11.50;49.08;97126.91;4411033;32;34249;-71
2023/01/17 12:45:01;;;;;;;0.40;0.40;;;;;;;11.44;48.87;97126.38;4408945;32;33965;-72
2023/01/17 12:47:41;;;;;;;0.40;0.40;;;;;;;10.84;49.73;97131.88;4415056;32;36360;-72
2023/01/17 12:50:27;;;;;;;0.40;0.40;;;;;;;11.06;50.17;97127.31;4422806;32;34514;-72
2023/01/17 12:53:17;;;;;;;0.40;0.40;;;;;;;10.84;48.19;97117.09;4408073;32;33484;-72
2023/01/17 12:56:07;;;;;;;0.80;0.80;;;;;;;10.05;51.52;97107.66;4409825;32;34646;-75
2023/01/17 12:58:46;;;;;;;0.50;0.50;;;;;;;10.67;50.12;97115.28;4408640;32;34580;-72
2023/01/17 13:01:24;;;;;;;0.50;0.50;;;;;;;10.81;49.24;97112.87;4408417;32;35137;-75
2023/01/17 13:04:18;;;;;;;0.50;0.50;;;;;;;10.24;52.34;97117.25;4402539;32;32192;-76
2023/01/17 13:06:57;;;;;;;0.68;0.68;;;;;;;10.10;52.57;97107.47;4422091;32;33828;-77
2023/01/17 13:09:37;;;;;;;1.05;1.02;;;;;;;9.97;54.07;97109.78;4421124;32;35807;-78
2023/01/17 13:12:11;;;;;;;0.50;0.50;;;;;;;10.22;53.30;97119.06;4383362;32;33641;-72
2023/01/17 13:14:39;;;;;;;0.40;0.40;;;;;;;10.01;54.38;97121.72;4431261;32;33576;-75
2023/01/17 13:17:16;;;;;;;0.70;0.70;;;;;;;10.41;54.18;97125.16;4425707;32;33842;-76
2023/01/17 13:19:54;;;;;;;0.40;0.40;;;;;;;10.23;54.23;97125.94;4438805;32;35037;-76
2023/01/17 13:22:25;;;;;;;0.65;0.65;;;;;;;9.45;55.81;97128.44;4425317;32;34348;-76
2023/01/17 13:25:25;;;;;;;0.55;0.55;;;;;;;9.83;55.91;97125.97;4412535;32;32613;-77
2023/01/17 13:27:54;;;;;;;2.42;2.22;;;;;;;9.79;55.38;97123.56;4424995;32;33099;-77
2023/01/17 13:30:48;;;;;;;1.95;1.85;;;;;;;9.38;56.97;97121.81;4411988;32;35454;-75
2023/01/17 13:33:50;;;;;;;0.57;0.57;;;;;;;9.83;55.68;97112.13;4437424;32;34522;-77
2023/01/17 13:37:03;;;;;;;0.50;0.50;;;;;;;9.43;57.40;97103.44;4453480;32;33331;-74